sensor_id;sensor_type;location;lat;lon;timestamp;temperature;humidity
26990;DHT22;14537;47.788;11.858;2022-11-13T00:00:52;2.20;99.90
26990;DHT22;14537;47.788;11.858;2022-11-13T00:03:18;2.20;99.90
26990;DHT22;14537;47.788;11.858;2022-11-13T00:05:44;2.20;99.90
26990;DHT22;14537;47.788;11.858;2022-11-13T00:08:10;2.10;99.90
26990;DHT22;14537;47.788;11.858;2022-11-13T00:10:35;2.10;99.90
26990;DHT22;14537;47.788;11.858;2022-11-13T00:13:01;2.10;99.90
26990;DHT22;14537;47.788;11.858;2022-11-13T00:15:27;2.00;99.90
26990;DHT22;14537;47.788;11.858;2022-11-13T00:17:52;2.00;99.90
26990;DHT22;14537;47.788;11.858;2022-11-13T00:20:18;2.00;99.90
26990;DHT22;14537;47.788;11.858;2022-11-13T00:22:44;2.00;99.90
26990;DHT22;14537;47.788;11.858;2022-11-13T00:25:10;2.10;99.90
26990;DHT22;14537;47.788;11.858;2022-11-13T00:27:36;2.10;99.90
26990;DHT22;14537;47.788;11.858;2022-11-13T00:30:03;2.00;99.90
26990;DHT22;14537;47.788;11.858;2022-11-13T00:32:29;2.00;99.90
26990;DHT22;14537;47.788;11.858;2022-11-13T00:34:54;1.90;99.90
26990;DHT22;14537;47.788;11.858;2022-11-13T00:37:20;1.80;99.90
26990;DHT22;14537;47.788;11.858;2022-11-13T00:39:46;1.90;99.90
26990;DHT22;14537;47.788;11.858;2022-11-13T00:42:11;1.90;99.90
26990;DHT22;14537;47.788;11.858;2022-11-13T00:44:37;1.90;99.90
26990;DHT22;14537;47.788;11.858;2022-11-13T00:47:03;1.80;99.90
26990;DHT22;14537;47.788;11.858;2022-11-13T00:49:28;1.70;99.90
26990;DHT22;14537;47.788;11.858;2022-11-13T00:51:54;1.70;99.90
26990;DHT22;14537;47.788;11.858;2022-11-13T00:54:20;1.70;99.90
26990;DHT22;14537;47.788;11.858;2022-11-13T00:56:46;1.60;99.90
26990;DHT22;14537;47.788;11.858;2022-11-13T00:59:11;1.50;99.90
26990;DHT22;14537;47.788;11.858;2022-11-13T01:01:37;1.50;99.90
26990;DHT22;14537;47.788;11.858;2022-11-13T01:04:03;1.60;99.90
26990;DHT22;14537;47.788;11.858;2022-11-13T01:06:28;1.60;99.90
26990;DHT22;14537;47.788;11.858;2022-11-13T01:08:56;1.50;99.90
26990;DHT22;14537;47.788;11.858;2022-11-13T01:11:25;1.50;99.90
26990;DHT22;14537;47.788;11.858;2022-11-13T01:13:52;1.50;99.90
26990;DHT22;14537;47.788;11.858;2022-11-13T01:16:22;1.40;99.90
26990;DHT22;14537;47.788;11.858;2022-11-13T01:18:48;1.40;99.90
26990;DHT22;14537;47.788;11.858;2022-11-13T01:21:18;1.50;99.90
26990;DHT22;14537;47.788;11.858;2022-11-13T01:23:44;1.40;99.90
26990;DHT22;14537;47.788;11.858;2022-11-13T01:26:11;1.40;99.90
26990;DHT22;14537;47.788;11.858;2022-11-13T01:28:38;1.40;99.90
26990;DHT22;14537;47.788;11.858;2022-11-13T01:31:09;1.30;99.90
26990;DHT22;14537;47.788;11.858;2022-11-13T01:33:35;1.20;99.90
26990;DHT22;14537;47.788;11.858;2022-11-13T01:36:15;1.20;99.90
26990;DHT22;14537;47.788;11.858;2022-11-13T01:38:41;1.20;99.90
26990;DHT22;14537;47.788;11.858;2022-11-13T01:41:10;1.30;99.90
26990;DHT22;14537;47.788;11.858;2022-11-13T01:43:38;1.30;99.90
26990;DHT22;14537;47.788;11.858;2022-11-13T01:46:17;1.30;99.90
26990;DHT22;14537;47.788;11.858;2022-11-13T01:48:47;1.40;99.90
26990;DHT22;14537;47.788;11.858;2022-11-13T01:51:35;1.30;99.90
26990;DHT22;14537;47.788;11.858;2022-11-13T01:54:05;1.30;99.90
26990;DHT22;14537;47.788;11.858;2022-11-13T01:56:31;1.20;99.90
26990;DHT22;14537;47.788;11.858;2022-11-13T01:59:15;1.20;99.90
26990;DHT22;14537;47.788;11.858;2022-11-13T02:01:42;1.30;99.90
26990;DHT22;14537;47.788;11.858;2022-11-13T02:04:08;1.30;99.90
26990;DHT22;14537;47.788;11.858;2022-11-13T02:06:44;1.40;99.90
26990;DHT22;14537;47.788;11.858;2022-11-13T02:09:12;1.40;99.90
26990;DHT22;14537;47.788;11.858;2022-11-13T02:11:40;1.50;99.90
26990;DHT22;14537;47.788;11.858;2022-11-13T02:14:06;1.50;99.90
26990;DHT22;14537;47.788;11.858;2022-11-13T02:16:33;1.50;99.90
26990;DHT22;14537;47.788;11.858;2022-11-13T02:19:02;1.50;99.90
26990;DHT22;14537;47.788;11.858;2022-11-13T02:21:55;1.50;99.90
26990;DHT22;14537;47.788;11.858;2022-11-13T02:24:31;1.60;99.90
26990;DHT22;14537;47.788;11.858;2022-11-13T02:27:02;1.60;99.90
26990;DHT22;14537;47.788;11.858;2022-11-13T02:29:29;1.60;99.90
26990;DHT22;14537;47.788;11.858;2022-11-13T02:31:54;1.70;99.90
26990;DHT22;14537;47.788;11.858;2022-11-13T02:34:20;1.70;99.90
26990;DHT22;14537;47.788;11.858;2022-11-13T02:36:46;1.70;99.90
26990;DHT22;14537;47.788;11.858;2022-11-13T02:39:12;1.70;99.90
26990;DHT22;14537;47.788;11.858;2022-11-13T02:41:38;1.70;99.90
26990;DHT22;14537;47.788;11.858;2022-11-13T02:44:05;1.60;99.90
26990;DHT22;14537;47.788;11.858;2022-11-13T02:46:31;1.50;99.90
26990;DHT22;14537;47.788;11.858;2022-11-13T02:48:57;1.60;99.90
26990;DHT22;14537;47.788;11.858;2022-11-13T02:51:23;1.60;99.90
26990;DHT22;14537;47.788;11.858;2022-11-13T02:53:49;1.60;99.90
26990;DHT22;14537;47.788;11.858;2022-11-13T02:56:14;1.60;99.90
26990;DHT22;14537;47.788;11.858;2022-11-13T02:58:40;1.60;99.90
26990;DHT22;14537;47.788;11.858;2022-11-13T03:01:06;1.60;99.90
26990;DHT22;14537;47.788;11.858;2022-11-13T03:03:32;1.70;99.90
26990;DHT22;14537;47.788;11.858;2022-11-13T03:05:58;1.70;99.90
26990;DHT22;14537;47.788;11.858;2022-11-13T03:08:23;1.70;99.90
26990;DHT22;14537;47.788;11.858;2022-11-13T03:10:51;1.70;99.90
26990;DHT22;14537;47.788;11.858;2022-11-13T03:13:17;1.70;99.90
26990;DHT22;14537;47.788;11.858;2022-11-13T03:15:43;1.70;99.90
26990;DHT22;14537;47.788;11.858;2022-11-13T03:18:08;1.70;99.90
26990;DHT22;14537;47.788;11.858;2022-11-13T03:20:38;1.60;99.90
26990;DHT22;14537;47.788;11.858;2022-11-13T03:23:04;1.70;99.90
26990;DHT22;14537;47.788;11.858;2022-11-13T03:25:31;1.70;99.90
26990;DHT22;14537;47.788;11.858;2022-11-13T03:27:57;1.70;99.90
26990;DHT22;14537;47.788;11.858;2022-11-13T03:30:23;1.70;99.90
26990;DHT22;14537;47.788;11.858;2022-11-13T03:32:52;1.70;99.90
26990;DHT22;14537;47.788;11.858;2022-11-13T03:35:18;1.60;99.90
26990;DHT22;14537;47.788;11.858;2022-11-13T03:37:44;1.70;99.90
26990;DHT22;14537;47.788;11.858;2022-11-13T03:40:10;1.70;99.90
26990;DHT22;14537;47.788;11.858;2022-11-13T03:42:35;1.70;99.90
26990;DHT22;14537;47.788;11.858;2022-11-13T03:45:01;1.80;99.90
26990;DHT22;14537;47.788;11.858;2022-11-13T03:47:27;1.80;99.90
26990;DHT22;14537;47.788;11.858;2022-11-13T03:49:52;1.80;99.90
26990;DHT22;14537;47.788;11.858;2022-11-13T03:52:18;1.80;99.90
26990;DHT22;14537;47.788;11.858;2022-11-13T03:54:44;1.80;99.90
26990;DHT22;14537;47.788;11.858;2022-11-13T03:57:09;1.80;99.90
26990;DHT22;14537;47.788;11.858;2022-11-13T03:59:35;1.70;99.90
26990;DHT22;14537;47.788;11.858;2022-11-13T04:02:00;1.70;99.90
26990;DHT22;14537;47.788;11.858;2022-11-13T04:04:26;1.70;99.90
26990;DHT22;14537;47.788;11.858;2022-11-13T04:06:52;1.80;99.90
26990;DHT22;14537;47.788;11.858;2022-11-13T04:09:17;1.70;99.90
26990;DHT22;14537;47.788;11.858;2022-11-13T04:11:43;1.80;99.90
26990;DHT22;14537;47.788;11.858;2022-11-13T04:14:09;1.70;99.90
26990;DHT22;14537;47.788;11.858;2022-11-13T04:16:34;1.70;99.90
26990;DHT22;14537;47.788;11.858;2022-11-13T04:19:00;1.70;99.90
26990;DHT22;14537;47.788;11.858;2022-11-13T04:21:26;1.80;99.90
26990;DHT22;14537;47.788;11.858;2022-11-13T04:23:52;1.80;99.90
26990;DHT22;14537;47.788;11.858;2022-11-13T04:26:18;1.80;99.90
26990;DHT22;14537;47.788;11.858;2022-11-13T04:28:44;1.80;99.90
26990;DHT22;14537;47.788;11.858;2022-11-13T04:31:09;1.90;99.90
26990;DHT22;14537;47.788;11.858;2022-11-13T04:33:35;1.90;99.90
26990;DHT22;14537;47.788;11.858;2022-11-13T04:36:01;1.90;99.90
26990;DHT22;14537;47.788;11.858;2022-11-13T04:38:26;1.80;99.90
26990;DHT22;14537;47.788;11.858;2022-11-13T04:40:52;1.80;99.90
26990;DHT22;14537;47.788;11.858;2022-11-13T04:43:38;1.70;99.90
26990;DHT22;14537;47.788;11.858;2022-11-13T04:46:03;1.80;99.90
26990;DHT22;14537;47.788;11.858;2022-11-13T04:48:29;1.80;99.90
26990;DHT22;14537;47.788;11.858;2022-11-13T04:50:54;1.90;99.90
26990;DHT22;14537;47.788;11.858;2022-11-13T04:53:20;1.90;99.90
26990;DHT22;14537;47.788;11.858;2022-11-13T04:55:46;1.90;99.90
26990;DHT22;14537;47.788;11.858;2022-11-13T04:58:11;1.90;99.90
26990;DHT22;14537;47.788;11.858;2022-11-13T05:00:37;1.90;99.90
26990;DHT22;14537;47.788;11.858;2022-11-13T05:03:03;1.90;99.90
26990;DHT22;14537;47.788;11.858;2022-11-13T05:05:28;1.90;99.90
26990;DHT22;14537;47.788;11.858;2022-11-13T05:07:54;1.90;99.90
26990;DHT22;14537;47.788;11.858;2022-11-13T05:10:21;1.90;99.90
26990;DHT22;14537;47.788;11.858;2022-11-13T05:12:46;1.90;99.90
26990;DHT22;14537;47.788;11.858;2022-11-13T05:15:12;2.00;99.90
26990;DHT22;14537;47.788;11.858;2022-11-13T05:17:38;1.90;99.90
26990;DHT22;14537;47.788;11.858;2022-11-13T05:20:04;1.90;99.90
26990;DHT22;14537;47.788;11.858;2022-11-13T05:22:29;1.90;99.90
26990;DHT22;14537;47.788;11.858;2022-11-13T05:24:55;1.90;99.90
26990;DHT22;14537;47.788;11.858;2022-11-13T05:27:21;1.90;99.90
26990;DHT22;14537;47.788;11.858;2022-11-13T05:29:46;1.80;99.90
26990;DHT22;14537;47.788;11.858;2022-11-13T05:32:12;1.80;99.90
26990;DHT22;14537;47.788;11.858;2022-11-13T05:34:38;1.80;99.90
26990;DHT22;14537;47.788;11.858;2022-11-13T05:37:03;1.80;99.90
26990;DHT22;14537;47.788;11.858;2022-11-13T05:39:29;1.80;99.90
26990;DHT22;14537;47.788;11.858;2022-11-13T05:41:55;1.80;99.90
26990;DHT22;14537;47.788;11.858;2022-11-13T05:44:20;1.90;99.90
26990;DHT22;14537;47.788;11.858;2022-11-13T05:46:46;1.90;99.90
26990;DHT22;14537;47.788;11.858;2022-11-13T05:49:11;1.90;99.90
26990;DHT22;14537;47.788;11.858;2022-11-13T05:51:37;1.90;99.90
26990;DHT22;14537;47.788;11.858;2022-11-13T05:54:03;1.90;99.90
26990;DHT22;14537;47.788;11.858;2022-11-13T05:56:32;1.90;99.90
26990;DHT22;14537;47.788;11.858;2022-11-13T05:58:59;1.80;99.90
26990;DHT22;14537;47.788;11.858;2022-11-13T06:01:30;1.90;99.90
26990;DHT22;14537;47.788;11.858;2022-11-13T06:03:58;1.90;99.90
26990;DHT22;14537;47.788;11.858;2022-11-13T06:06:25;1.90;99.90
26990;DHT22;14537;47.788;11.858;2022-11-13T06:08:52;2.00;99.90
26990;DHT22;14537;47.788;11.858;2022-11-13T06:11:21;2.00;99.90
26990;DHT22;14537;47.788;11.858;2022-11-13T06:13:48;2.00;99.90
26990;DHT22;14537;47.788;11.858;2022-11-13T06:16:16;1.90;99.90
26990;DHT22;14537;47.788;11.858;2022-11-13T06:18:43;1.90;99.90
26990;DHT22;14537;47.788;11.858;2022-11-13T06:21:18;1.90;99.90
26990;DHT22;14537;47.788;11.858;2022-11-13T06:23:45;2.00;99.90
26990;DHT22;14537;47.788;11.858;2022-11-13T06:26:14;2.00;99.90
26990;DHT22;14537;47.788;11.858;2022-11-13T06:28:40;2.00;99.90
26990;DHT22;14537;47.788;11.858;2022-11-13T06:31:13;1.90;99.90
26990;DHT22;14537;47.788;11.858;2022-11-13T06:33:40;1.90;99.90
26990;DHT22;14537;47.788;11.858;2022-11-13T06:36:10;2.00;99.90
26990;DHT22;14537;47.788;11.858;2022-11-13T06:38:37;2.00;99.90
26990;DHT22;14537;47.788;11.858;2022-11-13T06:41:04;1.90;99.90
26990;DHT22;14537;47.788;11.858;2022-11-13T06:43:30;2.00;99.90
26990;DHT22;14537;47.788;11.858;2022-11-13T06:45:56;2.00;99.90
26990;DHT22;14537;47.788;11.858;2022-11-13T06:48:23;2.00;99.90
26990;DHT22;14537;47.788;11.858;2022-11-13T06:50:49;2.00;99.90
26990;DHT22;14537;47.788;11.858;2022-11-13T06:53:15;2.10;99.90
26990;DHT22;14537;47.788;11.858;2022-11-13T06:55:49;2.10;99.90
26990;DHT22;14537;47.788;11.858;2022-11-13T06:58:15;2.10;99.90
26990;DHT22;14537;47.788;11.858;2022-11-13T07:00:42;2.20;99.90
26990;DHT22;14537;47.788;11.858;2022-11-13T07:03:19;2.20;99.90
26990;DHT22;14537;47.788;11.858;2022-11-13T07:05:45;2.10;99.90
26990;DHT22;14537;47.788;11.858;2022-11-13T07:08:12;2.20;99.90
26990;DHT22;14537;47.788;11.858;2022-11-13T07:10:38;2.20;99.90
26990;DHT22;14537;47.788;11.858;2022-11-13T07:13:04;2.20;99.90
26990;DHT22;14537;47.788;11.858;2022-11-13T07:15:36;2.10;99.90
26990;DHT22;14537;47.788;11.858;2022-11-13T07:18:03;2.10;99.90
26990;DHT22;14537;47.788;11.858;2022-11-13T07:20:29;2.10;99.90
26990;DHT22;14537;47.788;11.858;2022-11-13T07:22:56;2.10;99.90
26990;DHT22;14537;47.788;11.858;2022-11-13T07:25:22;2.20;99.90
26990;DHT22;14537;47.788;11.858;2022-11-13T07:27:48;2.20;99.90
26990;DHT22;14537;47.788;11.858;2022-11-13T07:30:13;2.30;99.90
26990;DHT22;14537;47.788;11.858;2022-11-13T07:32:39;2.30;99.90
26990;DHT22;14537;47.788;11.858;2022-11-13T07:35:05;2.40;99.90
26990;DHT22;14537;47.788;11.858;2022-11-13T07:37:31;2.40;99.90
26990;DHT22;14537;47.788;11.858;2022-11-13T07:39:56;2.50;99.90
26990;DHT22;14537;47.788;11.858;2022-11-13T07:42:22;2.50;99.90
26990;DHT22;14537;47.788;11.858;2022-11-13T07:44:48;2.50;99.90
26990;DHT22;14537;47.788;11.858;2022-11-13T07:47:13;2.50;99.90
26990;DHT22;14537;47.788;11.858;2022-11-13T07:49:39;2.50;99.90
26990;DHT22;14537;47.788;11.858;2022-11-13T07:52:04;2.60;99.90
26990;DHT22;14537;47.788;11.858;2022-11-13T07:54:30;2.70;99.90
26990;DHT22;14537;47.788;11.858;2022-11-13T07:56:56;2.60;99.90
26990;DHT22;14537;47.788;11.858;2022-11-13T07:59:21;2.70;99.90
26990;DHT22;14537;47.788;11.858;2022-11-13T08:01:47;2.80;99.90
26990;DHT22;14537;47.788;11.858;2022-11-13T08:04:13;2.80;99.90
26990;DHT22;14537;47.788;11.858;2022-11-13T08:06:38;2.90;99.90
26990;DHT22;14537;47.788;11.858;2022-11-13T08:09:04;3.00;99.90
26990;DHT22;14537;47.788;11.858;2022-11-13T08:11:30;3.00;99.90
26990;DHT22;14537;47.788;11.858;2022-11-13T08:13:56;3.00;99.90
26990;DHT22;14537;47.788;11.858;2022-11-13T08:16:21;3.00;99.90
26990;DHT22;14537;47.788;11.858;2022-11-13T08:18:50;3.10;99.90
26990;DHT22;14537;47.788;11.858;2022-11-13T08:21:16;3.10;99.90
26990;DHT22;14537;47.788;11.858;2022-11-13T08:23:41;3.10;99.90
26990;DHT22;14537;47.788;11.858;2022-11-13T08:26:08;3.10;99.90
26990;DHT22;14537;47.788;11.858;2022-11-13T08:28:34;3.10;99.90
26990;DHT22;14537;47.788;11.858;2022-11-13T08:31:00;3.20;99.90
26990;DHT22;14537;47.788;11.858;2022-11-13T08:33:26;3.40;99.90
26990;DHT22;14537;47.788;11.858;2022-11-13T08:35:54;3.40;99.90
26990;DHT22;14537;47.788;11.858;2022-11-13T08:38:20;3.40;99.90
26990;DHT22;14537;47.788;11.858;2022-11-13T08:40:47;3.30;99.90
26990;DHT22;14537;47.788;11.858;2022-11-13T08:43:12;3.40;99.90
26990;DHT22;14537;47.788;11.858;2022-11-13T08:45:38;3.40;99.90
26990;DHT22;14537;47.788;11.858;2022-11-13T08:48:04;3.40;99.90
26990;DHT22;14537;47.788;11.858;2022-11-13T08:50:31;3.50;99.90
26990;DHT22;14537;47.788;11.858;2022-11-13T08:52:58;3.60;99.90
26990;DHT22;14537;47.788;11.858;2022-11-13T08:55:24;3.70;99.90
26990;DHT22;14537;47.788;11.858;2022-11-13T08:57:51;3.80;99.90
26990;DHT22;14537;47.788;11.858;2022-11-13T09:00:17;3.80;99.90
26990;DHT22;14537;47.788;11.858;2022-11-13T09:02:44;3.80;99.90
26990;DHT22;14537;47.788;11.858;2022-11-13T09:05:09;3.80;99.90
26990;DHT22;14537;47.788;11.858;2022-11-13T09:07:35;3.90;99.90
26990;DHT22;14537;47.788;11.858;2022-11-13T09:10:01;4.00;99.90
26990;DHT22;14537;47.788;11.858;2022-11-13T09:12:26;3.90;99.90
26990;DHT22;14537;47.788;11.858;2022-11-13T09:14:52;4.00;99.90
26990;DHT22;14537;47.788;11.858;2022-11-13T09:17:18;4.10;99.90
26990;DHT22;14537;47.788;11.858;2022-11-13T09:19:44;4.00;99.90
26990;DHT22;14537;47.788;11.858;2022-11-13T09:22:09;4.10;99.90
26990;DHT22;14537;47.788;11.858;2022-11-13T09:24:35;4.30;99.90
26990;DHT22;14537;47.788;11.858;2022-11-13T09:27:01;4.30;99.90
26990;DHT22;14537;47.788;11.858;2022-11-13T09:29:26;4.30;99.90
26990;DHT22;14537;47.788;11.858;2022-11-13T09:31:54;4.30;99.90
26990;DHT22;14537;47.788;11.858;2022-11-13T09:34:20;4.30;99.90
26990;DHT22;14537;47.788;11.858;2022-11-13T09:36:45;4.30;99.90
26990;DHT22;14537;47.788;11.858;2022-11-13T09:39:11;4.30;99.90
26990;DHT22;14537;47.788;11.858;2022-11-13T09:41:44;4.40;99.90
26990;DHT22;14537;47.788;11.858;2022-11-13T09:44:23;4.50;99.90
26990;DHT22;14537;47.788;11.858;2022-11-13T09:46:54;4.50;99.90
26990;DHT22;14537;47.788;11.858;2022-11-13T09:49:28;4.70;99.90
26990;DHT22;14537;47.788;11.858;2022-11-13T09:52:01;4.60;99.90
26990;DHT22;14537;47.788;11.858;2022-11-13T09:54:28;4.30;99.90
26990;DHT22;14537;47.788;11.858;2022-11-13T09:57:19;4.40;99.90
26990;DHT22;14537;47.788;11.858;2022-11-13T10:00:10;4.70;99.90
26990;DHT22;14537;47.788;11.858;2022-11-13T10:02:46;4.80;99.90
26990;DHT22;14537;47.788;11.858;2022-11-13T10:05:30;4.90;99.90
26990;DHT22;14537;47.788;11.858;2022-11-13T10:11:05;5.00;99.90
26990;DHT22;14537;47.788;11.858;2022-11-13T10:13:44;5.10;99.90
26990;DHT22;14537;47.788;11.858;2022-11-13T10:18:48;5.20;99.90
26990;DHT22;14537;47.788;11.858;2022-11-13T10:21:45;5.20;99.90
26990;DHT22;14537;47.788;11.858;2022-11-13T10:24:24;5.50;99.90
26990;DHT22;14537;47.788;11.858;2022-11-13T10:26:57;5.50;99.90
26990;DHT22;14537;47.788;11.858;2022-11-13T10:29:26;5.60;99.90
26990;DHT22;14537;47.788;11.858;2022-11-13T10:31:53;5.70;99.90
26990;DHT22;14537;47.788;11.858;2022-11-13T10:34:18;5.70;99.90
26990;DHT22;14537;47.788;11.858;2022-11-13T10:37:11;5.80;99.90
26990;DHT22;14537;47.788;11.858;2022-11-13T10:39:42;5.80;99.90
26990;DHT22;14537;47.788;11.858;2022-11-13T10:42:27;5.90;99.90
26990;DHT22;14537;47.788;11.858;2022-11-13T10:44:56;5.90;99.90
26990;DHT22;14537;47.788;11.858;2022-11-13T10:47:24;5.90;99.90
26990;DHT22;14537;47.788;11.858;2022-11-13T10:49:50;5.90;99.90
26990;DHT22;14537;47.788;11.858;2022-11-13T10:52:26;5.90;99.90
26990;DHT22;14537;47.788;11.858;2022-11-13T10:57:40;5.60;99.90
26990;DHT22;14537;47.788;11.858;2022-11-13T11:02:52;5.60;99.90
26990;DHT22;14537;47.788;11.858;2022-11-13T11:05:20;5.50;99.90
26990;DHT22;14537;47.788;11.858;2022-11-13T11:07:46;5.40;99.90
26990;DHT22;14537;47.788;11.858;2022-11-13T11:13:19;5.50;99.90
26990;DHT22;14537;47.788;11.858;2022-11-13T11:15:47;5.60;99.90
26990;DHT22;14537;47.788;11.858;2022-11-13T11:21:06;5.80;99.90
26990;DHT22;14537;47.788;11.858;2022-11-13T11:29:21;5.90;99.90
26990;DHT22;14537;47.788;11.858;2022-11-13T11:37:25;5.90;99.90
26990;DHT22;14537;47.788;11.858;2022-11-13T11:40:18;5.80;99.90
26990;DHT22;14537;47.788;11.858;2022-11-13T11:42:46;5.90;99.90
26990;DHT22;14537;47.788;11.858;2022-11-13T11:45:22;5.90;99.90
26990;DHT22;14537;47.788;11.858;2022-11-13T11:47:49;5.90;99.90
26990;DHT22;14537;47.788;11.858;2022-11-13T11:50:17;5.90;99.90
26990;DHT22;14537;47.788;11.858;2022-11-13T11:55:55;5.90;99.90
26990;DHT22;14537;47.788;11.858;2022-11-13T12:01:26;5.80;99.90
26990;DHT22;14537;47.788;11.858;2022-11-13T12:09:28;5.50;99.90
26990;DHT22;14537;47.788;11.858;2022-11-13T12:20:07;5.30;99.90
26990;DHT22;14537;47.788;11.858;2022-11-13T12:34:29;5.30;99.90
26990;DHT22;14537;47.788;11.858;2022-11-13T12:36:57;5.50;99.90
26990;DHT22;14537;47.788;11.858;2022-11-13T12:39:45;5.70;99.90
26990;DHT22;14537;47.788;11.858;2022-11-13T12:43:02;5.90;99.90
26990;DHT22;14537;47.788;11.858;2022-11-13T12:46:04;6.10;99.90
26990;DHT22;14537;47.788;11.858;2022-11-13T12:48:20;6.20;99.90
26990;DHT22;14537;47.788;11.858;2022-11-13T12:51:00;6.40;99.90
26990;DHT22;14537;47.788;11.858;2022-11-13T12:53:28;6.50;99.90
26990;DHT22;14537;47.788;11.858;2022-11-13T12:55:58;6.60;99.90
26990;DHT22;14537;47.788;11.858;2022-11-13T12:58:31;6.70;99.90
26990;DHT22;14537;47.788;11.858;2022-11-13T13:01:05;6.70;99.90
26990;DHT22;14537;47.788;11.858;2022-11-13T13:06:16;6.50;99.90
26990;DHT22;14537;47.788;11.858;2022-11-13T13:15:10;6.60;99.90
26990;DHT22;14537;47.788;11.858;2022-11-13T13:17:25;6.80;99.90
26990;DHT22;14537;47.788;11.858;2022-11-13T13:22:32;6.90;99.90
26990;DHT22;14537;47.788;11.858;2022-11-13T13:25:21;6.90;99.90
26990;DHT22;14537;47.788;11.858;2022-11-13T13:27:59;6.90;99.90
26990;DHT22;14537;47.788;11.858;2022-11-13T13:30:26;6.80;99.90
26990;DHT22;14537;47.788;11.858;2022-11-13T13:33:29;6.90;99.90
26990;DHT22;14537;47.788;11.858;2022-11-13T13:49:51;6.90;99.90
26990;DHT22;14537;47.788;11.858;2022-11-13T13:52:20;6.90;99.90
26990;DHT22;14537;47.788;11.858;2022-11-13T13:54:48;6.90;99.90
26990;DHT22;14537;47.788;11.858;2022-11-13T13:57:15;7.00;99.90
26990;DHT22;14537;47.788;11.858;2022-11-13T13:59:41;7.10;99.90
26990;DHT22;14537;47.788;11.858;2022-11-13T14:02:16;7.10;99.90
26990;DHT22;14537;47.788;11.858;2022-11-13T14:04:45;7.10;99.90
26990;DHT22;14537;47.788;11.858;2022-11-13T14:07:23;7.20;99.90
26990;DHT22;14537;47.788;11.858;2022-11-13T14:09:49;7.20;99.90
26990;DHT22;14537;47.788;11.858;2022-11-13T14:12:28;7.20;99.90
26990;DHT22;14537;47.788;11.858;2022-11-13T14:14:53;7.20;99.90
26990;DHT22;14537;47.788;11.858;2022-11-13T14:17:23;7.20;99.90
26990;DHT22;14537;47.788;11.858;2022-11-13T14:19:51;7.20;99.90
26990;DHT22;14537;47.788;11.858;2022-11-13T14:22:17;7.10;99.90
26990;DHT22;14537;47.788;11.858;2022-11-13T14:24:53;7.20;99.90
26990;DHT22;14537;47.788;11.858;2022-11-13T14:27:23;7.10;99.90
26990;DHT22;14537;47.788;11.858;2022-11-13T14:29:52;7.10;99.90
26990;DHT22;14537;47.788;11.858;2022-11-13T14:32:25;7.00;99.90
26990;DHT22;14537;47.788;11.858;2022-11-13T14:34:55;7.00;99.90
26990;DHT22;14537;47.788;11.858;2022-11-13T14:37:35;7.00;99.90
26990;DHT22;14537;47.788;11.858;2022-11-13T14:40:04;6.90;99.90
26990;DHT22;14537;47.788;11.858;2022-11-13T14:42:36;6.80;99.90
26990;DHT22;14537;47.788;11.858;2022-11-13T14:45:18;6.80;99.90
26990;DHT22;14537;47.788;11.858;2022-11-13T14:50:31;6.50;99.90
26990;DHT22;14537;47.788;11.858;2022-11-13T14:53:08;6.50;99.90
26990;DHT22;14537;47.788;11.858;2022-11-13T14:55:50;6.40;99.90
26990;DHT22;14537;47.788;11.858;2022-11-13T15:00:52;6.30;99.90
26990;DHT22;14537;47.788;11.858;2022-11-13T15:03:18;6.20;99.90
26990;DHT22;14537;47.788;11.858;2022-11-13T15:05:44;6.10;99.90
26990;DHT22;14537;47.788;11.858;2022-11-13T15:08:13;6.10;99.90
26990;DHT22;14537;47.788;11.858;2022-11-13T15:10:39;6.00;99.90
26990;DHT22;14537;47.788;11.858;2022-11-13T15:13:11;6.00;99.90
26990;DHT22;14537;47.788;11.858;2022-11-13T15:15:37;6.00;99.90
26990;DHT22;14537;47.788;11.858;2022-11-13T15:18:03;5.90;99.90
26990;DHT22;14537;47.788;11.858;2022-11-13T15:20:30;5.90;99.90
26990;DHT22;14537;47.788;11.858;2022-11-13T15:22:57;5.80;99.90
26990;DHT22;14537;47.788;11.858;2022-11-13T15:25:24;5.80;99.90
26990;DHT22;14537;47.788;11.858;2022-11-13T15:27:50;5.80;99.90
26990;DHT22;14537;47.788;11.858;2022-11-13T15:30:17;5.70;99.90
26990;DHT22;14537;47.788;11.858;2022-11-13T15:32:43;5.60;99.90
26990;DHT22;14537;47.788;11.858;2022-11-13T15:35:13;5.60;99.90
26990;DHT22;14537;47.788;11.858;2022-11-13T15:37:40;5.60;99.90
26990;DHT22;14537;47.788;11.858;2022-11-13T15:40:06;5.50;99.90
26990;DHT22;14537;47.788;11.858;2022-11-13T15:42:33;5.40;99.90
26990;DHT22;14537;47.788;11.858;2022-11-13T15:44:59;5.40;99.90
26990;DHT22;14537;47.788;11.858;2022-11-13T15:47:34;5.40;99.90
26990;DHT22;14537;47.788;11.858;2022-11-13T15:50:00;5.40;99.90
26990;DHT22;14537;47.788;11.858;2022-11-13T15:52:28;5.40;99.90
26990;DHT22;14537;47.788;11.858;2022-11-13T15:54:55;5.30;99.90
26990;DHT22;14537;47.788;11.858;2022-11-13T15:57:24;5.30;99.90
26990;DHT22;14537;47.788;11.858;2022-11-13T15:59:50;5.20;99.90
26990;DHT22;14537;47.788;11.858;2022-11-13T16:02:16;5.20;99.90
26990;DHT22;14537;47.788;11.858;2022-11-13T16:04:42;5.10;99.90
26990;DHT22;14537;47.788;11.858;2022-11-13T16:07:25;5.10;99.90
26990;DHT22;14537;47.788;11.858;2022-11-13T16:09:51;5.10;99.90
26990;DHT22;14537;47.788;11.858;2022-11-13T16:12:16;5.10;99.90
26990;DHT22;14537;47.788;11.858;2022-11-13T16:14:42;5.00;99.90
26990;DHT22;14537;47.788;11.858;2022-11-13T16:17:13;5.10;99.90
26990;DHT22;14537;47.788;11.858;2022-11-13T16:19:41;5.00;99.90
26990;DHT22;14537;47.788;11.858;2022-11-13T16:22:24;5.00;99.90
26990;DHT22;14537;47.788;11.858;2022-11-13T16:24:50;5.10;99.90
26990;DHT22;14537;47.788;11.858;2022-11-13T16:27:27;5.10;99.90
26990;DHT22;14537;47.788;11.858;2022-11-13T16:29:54;5.10;99.90
26990;DHT22;14537;47.788;11.858;2022-11-13T16:32:20;5.00;99.90
26990;DHT22;14537;47.788;11.858;2022-11-13T16:34:46;5.00;99.90
26990;DHT22;14537;47.788;11.858;2022-11-13T16:37:17;5.00;99.90
26990;DHT22;14537;47.788;11.858;2022-11-13T16:39:43;4.90;99.90
26990;DHT22;14537;47.788;11.858;2022-11-13T16:42:10;4.90;99.90
26990;DHT22;14537;47.788;11.858;2022-11-13T16:44:36;4.80;99.90
26990;DHT22;14537;47.788;11.858;2022-11-13T16:47:04;4.80;99.90
26990;DHT22;14537;47.788;11.858;2022-11-13T16:49:30;4.70;99.90
26990;DHT22;14537;47.788;11.858;2022-11-13T16:51:55;4.60;99.90
26990;DHT22;14537;47.788;11.858;2022-11-13T16:54:21;4.50;99.90
26990;DHT22;14537;47.788;11.858;2022-11-13T16:56:47;4.40;99.90
26990;DHT22;14537;47.788;11.858;2022-11-13T16:59:12;4.40;99.90
26990;DHT22;14537;47.788;11.858;2022-11-13T17:01:38;4.40;99.90
26990;DHT22;14537;47.788;11.858;2022-11-13T17:04:04;4.40;99.90
26990;DHT22;14537;47.788;11.858;2022-11-13T17:06:32;4.30;99.90
26990;DHT22;14537;47.788;11.858;2022-11-13T17:08:59;4.20;99.90